sensor_id;sensor_type;location;lat;lon;timestamp;pressure;altitude;pressure_sealevel;temperature;humidity
7180;BME280;3631;42.152;24.756;2022-08-19T00:01:22;98887.78;;;26.84;58.55
7180;BME280;3631;42.152;24.756;2022-08-19T00:03:49;98889.41;;;26.76;58.58
7180;BME280;3631;42.152;24.756;2022-08-19T00:06:16;98891.59;;;26.73;58.81
7180;BME280;3631;42.152;24.756;2022-08-19T00:08:44;98891.75;;;26.71;59.24
7180;BME280;3631;42.152;24.756;2022-08-19T00:11:11;98894.56;;;26.70;59.40
7180;BME280;3631;42.152;24.756;2022-08-19T00:13:39;98891.06;;;26.69;59.57
7180;BME280;3631;42.152;24.756;2022-08-19T00:16:06;98881.06;;;26.63;59.84
7180;BME280;3631;42.152;24.756;2022-08-19T00:18:34;98872.19;;;26.55;60.60
7180;BME280;3631;42.152;24.756;2022-08-19T00:21:01;98875.38;;;26.50;60.91
7180;BME280;3631;42.152;24.756;2022-08-19T00:23:28;98885.84;;;26.52;60.58
7180;BME280;3631;42.152;24.756;2022-08-19T00:25:55;98884.19;;;26.51;60.70
7180;BME280;3631;42.152;24.756;2022-08-19T00:28:22;98875.31;;;26.42;61.02
7180;BME280;3631;42.152;24.756;2022-08-19T00:30:51;98882.28;;;26.35;61.32
7180;BME280;3631;42.152;24.756;2022-08-19T00:33:18;98887.28;;;26.38;61.30
7180;BME280;3631;42.152;24.756;2022-08-19T00:35:45;98876.97;;;26.43;61.76
7180;BME280;3631;42.152;24.756;2022-08-19T00:38:12;98872.19;;;26.47;60.46
7180;BME280;3631;42.152;24.756;2022-08-19T00:40:42;98868.16;;;26.43;60.80
7180;BME280;3631;42.152;24.756;2022-08-19T00:43:09;98856.81;;;26.32;60.72
7180;BME280;3631;42.152;24.756;2022-08-19T00:45:39;98859.25;;;26.26;61.73
7180;BME280;3631;42.152;24.756;2022-08-19T00:48:09;98856.19;;;26.13;62.05
7180;BME280;3631;42.152;24.756;2022-08-19T00:50:37;98855.69;;;26.09;62.04
7180;BME280;3631;42.152;24.756;2022-08-19T00:53:06;98848.81;;;25.98;62.61
7180;BME280;3631;42.152;24.756;2022-08-19T00:55:33;98853.41;;;25.88;62.98
7180;BME280;3631;42.152;24.756;2022-08-19T00:58:03;98849.56;;;25.83;63.19
7180;BME280;3631;42.152;24.756;2022-08-19T01:00:31;98852.22;;;25.83;63.16
7180;BME280;3631;42.152;24.756;2022-08-19T01:03:02;98844.91;;;25.85;63.57
7180;BME280;3631;42.152;24.756;2022-08-19T01:05:31;98836.84;;;25.94;63.09
7180;BME280;3631;42.152;24.756;2022-08-19T01:08:01;98842.66;;;25.98;63.71
7180;BME280;3631;42.152;24.756;2022-08-19T01:10:31;98842.00;;;25.96;63.71
7180;BME280;3631;42.152;24.756;2022-08-19T01:13:00;98841.94;;;25.88;63.90
7180;BME280;3631;42.152;24.756;2022-08-19T01:15:31;98835.75;;;25.79;64.29
7180;BME280;3631;42.152;24.756;2022-08-19T01:18:01;98833.13;;;25.87;64.18
7180;BME280;3631;42.152;24.756;2022-08-19T01:20:32;98845.44;;;25.88;64.11
7180;BME280;3631;42.152;24.756;2022-08-19T01:23:01;98826.09;;;25.78;64.19
7180;BME280;3631;42.152;24.756;2022-08-19T01:25:32;98840.59;;;25.84;64.47
7180;BME280;3631;42.152;24.756;2022-08-19T01:27:59;98850.41;;;25.83;64.23
7180;BME280;3631;42.152;24.756;2022-08-19T01:30:28;98858.88;;;25.87;64.42
7180;BME280;3631;42.152;24.756;2022-08-19T01:32:56;98860.84;;;25.85;64.88
7180;BME280;3631;42.152;24.756;2022-08-19T01:35:26;98871.03;;;25.89;65.50
7180;BME280;3631;42.152;24.756;2022-08-19T01:37:55;98870.50;;;25.86;66.20
7180;BME280;3631;42.152;24.756;2022-08-19T01:40:28;98874.63;;;25.80;67.06
7180;BME280;3631;42.152;24.756;2022-08-19T01:42:56;98873.59;;;25.73;67.09
7180;BME280;3631;42.152;24.756;2022-08-19T01:45:26;98882.03;;;25.68;67.54
7180;BME280;3631;42.152;24.756;2022-08-19T01:47:54;98861.78;;;25.50;67.81
7180;BME280;3631;42.152;24.756;2022-08-19T01:50:21;98890.38;;;25.56;68.19
7180;BME280;3631;42.152;24.756;2022-08-19T01:52:48;98891.06;;;25.40;68.42
7180;BME280;3631;42.152;24.756;2022-08-19T01:55:20;98888.34;;;25.32;68.11
7180;BME280;3631;42.152;24.756;2022-08-19T01:57:52;98897.00;;;25.16;68.57
7180;BME280;3631;42.152;24.756;2022-08-19T02:00:24;98879.63;;;25.04;69.41
7180;BME280;3631;42.152;24.756;2022-08-19T02:02:51;98897.53;;;25.02;69.31
7180;BME280;3631;42.152;24.756;2022-08-19T02:05:19;98903.53;;;25.04;69.55
7180;BME280;3631;42.152;24.756;2022-08-19T02:07:47;98906.69;;;25.08;69.70
7180;BME280;3631;42.152;24.756;2022-08-19T02:10:17;98904.84;;;24.90;70.57
7180;BME280;3631;42.152;24.756;2022-08-19T02:12:44;98906.03;;;24.78;71.69
7180;BME280;3631;42.152;24.756;2022-08-19T02:15:13;98899.47;;;24.73;72.41
7180;BME280;3631;42.152;24.756;2022-08-19T02:17:41;98912.38;;;24.68;72.81
7180;BME280;3631;42.152;24.756;2022-08-19T02:20:09;98912.81;;;24.63;73.31
7180;BME280;3631;42.152;24.756;2022-08-19T02:22:36;98918.66;;;24.67;73.22
7180;BME280;3631;42.152;24.756;2022-08-19T02:25:05;98913.38;;;24.67;72.97
7180;BME280;3631;42.152;24.756;2022-08-19T02:27:32;98920.91;;;24.61;73.53
7180;BME280;3631;42.152;24.756;2022-08-19T02:30:00;98906.16;;;24.49;74.22
7180;BME280;3631;42.152;24.756;2022-08-19T02:32:28;98917.78;;;24.48;74.50
7180;BME280;3631;42.152;24.756;2022-08-19T02:34:56;98919.84;;;24.54;74.34
7180;BME280;3631;42.152;24.756;2022-08-19T02:37:23;98919.06;;;24.44;74.93
7180;BME280;3631;42.152;24.756;2022-08-19T02:40:10;98922.00;;;24.41;74.69
7180;BME280;3631;42.152;24.756;2022-08-19T02:42:37;98924.66;;;24.41;74.35
7180;BME280;3631;42.152;24.756;2022-08-19T02:45:05;98929.38;;;24.47;74.54
7180;BME280;3631;42.152;24.756;2022-08-19T02:47:34;98914.78;;;24.34;74.65
7180;BME280;3631;42.152;24.756;2022-08-19T02:50:02;98909.91;;;24.19;74.71
7180;BME280;3631;42.152;24.756;2022-08-19T02:52:29;98932.50;;;24.33;74.73
7180;BME280;3631;42.152;24.756;2022-08-19T02:54:58;98933.34;;;24.34;74.43
7180;BME280;3631;42.152;24.756;2022-08-19T02:57:25;98924.94;;;24.38;74.17
7180;BME280;3631;42.152;24.756;2022-08-19T02:59:52;98934.69;;;24.47;74.24
7180;BME280;3631;42.152;24.756;2022-08-19T03:02:19;98934.69;;;24.47;74.32
7180;BME280;3631;42.152;24.756;2022-08-19T03:04:48;98947.69;;;24.41;75.19
7180;BME280;3631;42.152;24.756;2022-08-19T03:07:16;98940.84;;;24.38;75.12
7180;BME280;3631;42.152;24.756;2022-08-19T03:09:43;98944.66;;;24.36;75.29
7180;BME280;3631;42.152;24.756;2022-08-19T03:12:11;98939.19;;;24.37;75.10
7180;BME280;3631;42.152;24.756;2022-08-19T03:14:38;98945.31;;;24.47;74.78
7180;BME280;3631;42.152;24.756;2022-08-19T03:17:05;98946.25;;;24.56;74.42
7180;BME280;3631;42.152;24.756;2022-08-19T03:19:33;98935.03;;;24.62;74.08
7180;BME280;3631;42.152;24.756;2022-08-19T03:22:02;98955.41;;;24.71;74.07
7180;BME280;3631;42.152;24.756;2022-08-19T03:24:30;98949.91;;;24.73;74.04
7180;BME280;3631;42.152;24.756;2022-08-19T03:26:57;98954.66;;;24.79;73.68
7180;BME280;3631;42.152;24.756;2022-08-19T03:29:26;98953.53;;;24.81;73.80
7180;BME280;3631;42.152;24.756;2022-08-19T03:31:53;98954.38;;;24.82;73.80
7180;BME280;3631;42.152;24.756;2022-08-19T03:34:23;98958.97;;;24.80;73.93
7180;BME280;3631;42.152;24.756;2022-08-19T03:36:52;98962.97;;;24.84;73.86
7180;BME280;3631;42.152;24.756;2022-08-19T03:39:22;98959.81;;;24.80;74.12
7180;BME280;3631;42.152;24.756;2022-08-19T03:41:51;98963.31;;;24.81;73.71
7180;BME280;3631;42.152;24.756;2022-08-19T03:44:20;98963.16;;;24.82;74.12
7180;BME280;3631;42.152;24.756;2022-08-19T03:46:49;98955.44;;;24.89;74.28
7180;BME280;3631;42.152;24.756;2022-08-19T03:49:16;98956.97;;;24.91;73.69
7180;BME280;3631;42.152;24.756;2022-08-19T03:51:44;98968.53;;;25.00;73.30
7180;BME280;3631;42.152;24.756;2022-08-19T03:54:13;98980.75;;;25.11;72.86
7180;BME280;3631;42.152;24.756;2022-08-19T03:56:43;98973.91;;;25.08;73.75
7180;BME280;3631;42.152;24.756;2022-08-19T03:59:17;98972.09;;;25.09;73.84
7180;BME280;3631;42.152;24.756;2022-08-19T04:01:44;98977.81;;;25.14;73.93
7180;BME280;3631;42.152;24.756;2022-08-19T04:04:11;98972.25;;;25.07;74.30
7180;BME280;3631;42.152;24.756;2022-08-19T04:06:39;98966.03;;;24.99;74.97
7180;BME280;3631;42.152;24.756;2022-08-19T04:09:10;98944.66;;;24.90;75.26
7180;BME280;3631;42.152;24.756;2022-08-19T04:11:39;98965.53;;;25.13;75.05
7180;BME280;3631;42.152;24.756;2022-08-19T04:14:09;98971.56;;;25.50;73.07
7180;BME280;3631;42.152;24.756;2022-08-19T04:16:36;98978.44;;;26.22;70.50
7180;BME280;3631;42.152;24.756;2022-08-19T04:19:05;98986.44;;;27.16;66.60
7180;BME280;3631;42.152;24.756;2022-08-19T04:21:33;98991.06;;;27.97;63.20
7180;BME280;3631;42.152;24.756;2022-08-19T04:24:00;98993.28;;;28.81;59.63
7180;BME280;3631;42.152;24.756;2022-08-19T04:26:29;98999.28;;;29.76;56.00
7180;BME280;3631;42.152;24.756;2022-08-19T04:28:58;98990.44;;;30.36;53.60
7180;BME280;3631;42.152;24.756;2022-08-19T04:31:28;98992.28;;;31.09;51.30
7180;BME280;3631;42.152;24.756;2022-08-19T04:33:56;98999.66;;;31.79;48.60
7180;BME280;3631;42.152;24.756;2022-08-19T04:36:26;98997.78;;;32.22;47.17
7180;BME280;3631;42.152;24.756;2022-08-19T04:38:54;99011.25;;;32.28;46.60
7180;BME280;3631;42.152;24.756;2022-08-19T04:41:22;99016.06;;;32.67;45.58
7180;BME280;3631;42.152;24.756;2022-08-19T04:44:06;99012.44;;;33.23;43.62
7180;BME280;3631;42.152;24.756;2022-08-19T04:46:35;99023.31;;;33.49;42.98
7180;BME280;3631;42.152;24.756;2022-08-19T04:49:04;99018.97;;;33.00;43.55
7180;BME280;3631;42.152;24.756;2022-08-19T04:51:32;99026.53;;;33.25;42.71
7180;BME280;3631;42.152;24.756;2022-08-19T04:54:01;99023.19;;;34.23;40.67
7180;BME280;3631;42.152;24.756;2022-08-19T04:56:28;99010.09;;;35.44;38.12
7180;BME280;3631;42.152;24.756;2022-08-19T04:58:56;99016.00;;;35.14;38.45
7180;BME280;3631;42.152;24.756;2022-08-19T05:01:25;99023.06;;;35.15;38.51
7180;BME280;3631;42.152;24.756;2022-08-19T05:03:55;99016.22;;;35.57;37.86
7180;BME280;3631;42.152;24.756;2022-08-19T05:06:23;99028.63;;;36.28;36.81
7180;BME280;3631;42.152;24.756;2022-08-19T05:08:51;99026.03;;;37.19;34.90
7180;BME280;3631;42.152;24.756;2022-08-19T05:11:20;99028.22;;;38.00;33.85
7180;BME280;3631;42.152;24.756;2022-08-19T05:13:48;99015.19;;;38.44;32.60
7180;BME280;3631;42.152;24.756;2022-08-19T05:16:17;99031.13;;;38.75;32.24
7180;BME280;3631;42.152;24.756;2022-08-19T05:18:44;99035.63;;;38.81;32.57
7180;BME280;3631;42.152;24.756;2022-08-19T05:21:30;99031.00;;;39.45;31.45
7180;BME280;3631;42.152;24.756;2022-08-19T05:24:15;99037.94;;;40.15;29.85
7180;BME280;3631;42.152;24.756;2022-08-19T05:26:44;99033.97;;;40.22;29.53
7180;BME280;3631;42.152;24.756;2022-08-19T05:29:12;99030.63;;;40.32;28.15
7180;BME280;3631;42.152;24.756;2022-08-19T05:31:40;99041.88;;;40.57;27.88
7180;BME280;3631;42.152;24.756;2022-08-19T05:34:07;99039.94;;;41.35;26.95
7180;BME280;3631;42.152;24.756;2022-08-19T05:36:39;99039.63;;;42.07;25.51
7180;BME280;3631;42.152;24.756;2022-08-19T05:39:07;99045.88;;;42.39;25.20
7180;BME280;3631;42.152;24.756;2022-08-19T05:41:34;99044.56;;;42.42;25.61
7180;BME280;3631;42.152;24.756;2022-08-19T05:44:04;99040.13;;;42.78;24.36
7180;BME280;3631;42.152;24.756;2022-08-19T05:46:35;99037.56;;;43.08;24.11
7180;BME280;3631;42.152;24.756;2022-08-19T05:49:02;99044.75;;;43.35;24.22
7180;BME280;3631;42.152;24.756;2022-08-19T05:51:31;99040.28;;;43.14;24.23
7180;BME280;3631;42.152;24.756;2022-08-19T05:54:01;99040.56;;;43.07;24.34
7180;BME280;3631;42.152;24.756;2022-08-19T05:56:28;99032.50;;;42.38;24.53
7180;BME280;3631;42.152;24.756;2022-08-19T05:58:56;99050.97;;;42.68;24.30
7180;BME280;3631;42.152;24.756;2022-08-19T06:01:25;99046.72;;;42.77;24.31
7180;BME280;3631;42.152;24.756;2022-08-19T06:03:52;99045.81;;;42.34;25.14
7180;BME280;3631;42.152;24.756;2022-08-19T06:06:20;99055.72;;;41.82;25.25
7180;BME280;3631;42.152;24.756;2022-08-19T06:08:47;99050.69;;;42.27;25.75
7180;BME280;3631;42.152;24.756;2022-08-19T06:11:20;99049.69;;;42.38;25.25
7180;BME280;3631;42.152;24.756;2022-08-19T06:13:49;99063.53;;;42.64;24.93
7180;BME280;3631;42.152;24.756;2022-08-19T06:16:19;99064.03;;;43.08;24.33
7180;BME280;3631;42.152;24.756;2022-08-19T06:18:49;99057.88;;;43.23;24.45
7180;BME280;3631;42.152;24.756;2022-08-19T06:21:17;99064.50;;;42.90;24.11
7180;BME280;3631;42.152;24.756;2022-08-19T06:23:45;99060.53;;;42.33;24.70
7180;BME280;3631;42.152;24.756;2022-08-19T06:26:13;99061.19;;;42.46;24.47
7180;BME280;3631;42.152;24.756;2022-08-19T06:28:42;99056.31;;;42.48;24.71
7180;BME280;3631;42.152;24.756;2022-08-19T06:31:12;99068.38;;;42.57;25.08
7180;BME280;3631;42.152;24.756;2022-08-19T06:33:41;99062.84;;;42.47;24.55
7180;BME280;3631;42.152;24.756;2022-08-19T06:36:16;99068.03;;;42.90;23.78
7180;BME280;3631;42.152;24.756;2022-08-19T06:38:43;99066.97;;;42.91;23.85
7180;BME280;3631;42.152;24.756;2022-08-19T06:41:10;99071.44;;;43.13;23.87
7180;BME280;3631;42.152;24.756;2022-08-19T06:43:37;99073.47;;;43.32;23.34
7180;BME280;3631;42.152;24.756;2022-08-19T06:46:11;99071.00;;;43.36;23.45
7180;BME280;3631;42.152;24.756;2022-08-19T06:48:39;99073.19;;;43.39;23.54
7180;BME280;3631;42.152;24.756;2022-08-19T06:51:06;99073.50;;;42.90;24.08
7180;BME280;3631;42.152;24.756;2022-08-19T06:53:33;99071.00;;;42.42;24.66
7180;BME280;3631;42.152;24.756;2022-08-19T06:56:01;99067.53;;;42.19;24.75
7180;BME280;3631;42.152;24.756;2022-08-19T06:58:28;99066.31;;;42.05;25.05
7180;BME280;3631;42.152;24.756;2022-08-19T07:00:59;99065.44;;;41.99;25.77
7180;BME280;3631;42.152;24.756;2022-08-19T07:03:29;99063.19;;;42.23;25.44
7180;BME280;3631;42.152;24.756;2022-08-19T07:05:58;99061.38;;;42.71;24.85
7180;BME280;3631;42.152;24.756;2022-08-19T07:08:25;99059.56;;;43.44;24.63
7180;BME280;3631;42.152;24.756;2022-08-19T07:10:52;99059.38;;;43.91;23.86
7180;BME280;3631;42.152;24.756;2022-08-19T07:13:21;99053.38;;;44.30;23.46
7180;BME280;3631;42.152;24.756;2022-08-19T07:15:48;99052.03;;;44.42;23.25
7180;BME280;3631;42.152;24.756;2022-08-19T07:18:17;99048.16;;;44.64;23.26
7180;BME280;3631;42.152;24.756;2022-08-19T07:20:47;99053.06;;;44.82;23.26
7180;BME280;3631;42.152;24.756;2022-08-19T07:23:14;99045.38;;;44.84;22.85
7180;BME280;3631;42.152;24.756;2022-08-19T07:25:41;99048.00;;;45.25;22.65
7180;BME280;3631;42.152;24.756;2022-08-19T07:28:08;99050.28;;;44.97;22.52
7180;BME280;3631;42.152;24.756;2022-08-19T07:30:38;99057.16;;;45.59;21.94
7180;BME280;3631;42.152;24.756;2022-08-19T07:33:06;99042.03;;;45.62;21.31
7180;BME280;3631;42.152;24.756;2022-08-19T07:35:33;99050.63;;;45.45;20.95
7180;BME280;3631;42.152;24.756;2022-08-19T07:38:02;99044.66;;;45.33;21.39
7180;BME280;3631;42.152;24.756;2022-08-19T07:40:32;99051.44;;;45.50;20.54
7180;BME280;3631;42.152;24.756;2022-08-19T07:42:59;99031.72;;;44.79;21.50
7180;BME280;3631;42.152;24.756;2022-08-19T07:45:25;99029.31;;;44.42;22.52
7180;BME280;3631;42.152;24.756;2022-08-19T07:47:54;99041.59;;;44.65;21.46
7180;BME280;3631;42.152;24.756;2022-08-19T07:50:21;99053.22;;;45.16;21.41
7180;BME280;3631;42.152;24.756;2022-08-19T07:52:49;99046.91;;;45.20;21.41
7180;BME280;3631;42.152;24.756;2022-08-19T07:55:23;99038.69;;;45.26;21.16
7180;BME280;3631;42.152;24.756;2022-08-19T07:57:50;99038.56;;;45.46;20.91
7180;BME280;3631;42.152;24.756;2022-08-19T08:00:19;99028.38;;;45.56;20.83
7180;BME280;3631;42.152;24.756;2022-08-19T08:02:46;99034.56;;;45.23;21.53
7180;BME280;3631;42.152;24.756;2022-08-19T08:05:12;99036.28;;;45.04;22.06
7180;BME280;3631;42.152;24.756;2022-08-19T08:07:57;99026.13;;;45.14;21.53
7180;BME280;3631;42.152;24.756;2022-08-19T08:10:42;99036.50;;;45.17;21.83
7180;BME280;3631;42.152;24.756;2022-08-19T08:13:09;99030.09;;;44.63;22.41
7180;BME280;3631;42.152;24.756;2022-08-19T08:15:38;99035.19;;;45.15;22.16
7180;BME280;3631;42.152;24.756;2022-08-19T08:18:05;99043.28;;;45.35;21.51
7180;BME280;3631;42.152;24.756;2022-08-19T08:20:33;99034.16;;;45.94;21.17
7180;BME280;3631;42.152;24.756;2022-08-19T08:23:00;99037.59;;;46.68;20.75
7180;BME280;3631;42.152;24.756;2022-08-19T08:25:46;99033.88;;;46.24;20.78
7180;BME280;3631;42.152;24.756;2022-08-19T08:28:13;99031.34;;;46.33;20.82
7180;BME280;3631;42.152;24.756;2022-08-19T08:30:40;99034.81;;;46.73;21.15
7180;BME280;3631;42.152;24.756;2022-08-19T08:33:09;99034.38;;;46.32;21.24
7180;BME280;3631;42.152;24.756;2022-08-19T08:35:36;99033.25;;;46.38;20.32
7180;BME280;3631;42.152;24.756;2022-08-19T08:38:04;99032.72;;;46.59;20.33
7180;BME280;3631;42.152;24.756;2022-08-19T08:40:39;99037.50;;;46.49;20.66
7180;BME280;3631;42.152;24.756;2022-08-19T08:43:18;99026.84;;;46.42;20.78
7180;BME280;3631;42.152;24.756;2022-08-19T08:45:52;99024.41;;;46.70;20.29
7180;BME280;3631;42.152;24.756;2022-08-19T08:48:24;99026.44;;;46.83;20.24
7180;BME280;3631;42.152;24.756;2022-08-19T08:50:57;99019.56;;;46.56;20.57
7180;BME280;3631;42.152;24.756;2022-08-19T08:53:25;99011.03;;;46.34;20.34
7180;BME280;3631;42.152;24.756;2022-08-19T08:55:53;99004.38;;;45.72;21.28
7180;BME280;3631;42.152;24.756;2022-08-19T08:58:27;99009.13;;;45.62;21.75
7180;BME280;3631;42.152;24.756;2022-08-19T09:00:56;99009.69;;;45.04;21.57
7180;BME280;3631;42.152;24.756;2022-08-19T09:03:24;99001.09;;;44.51;22.27
7180;BME280;3631;42.152;24.756;2022-08-19T09:05:59;99001.66;;;44.28;22.84
7180;BME280;3631;42.152;24.756;2022-08-19T09:08:35;98983.13;;;44.00;22.98
7180;BME280;3631;42.152;24.756;2022-08-19T09:11:07;98993.72;;;43.45;23.15
7180;BME280;3631;42.152;24.756;2022-08-19T09:13:47;98991.28;;;43.64;22.97
7180;BME280;3631;42.152;24.756;2022-08-19T09:16:19;98980.91;;;43.76;22.91
7180;BME280;3631;42.152;24.756;2022-08-19T09:18:49;98980.91;;;43.81;22.83
7180;BME280;3631;42.152;24.756;2022-08-19T09:21:18;98983.63;;;43.61;22.58
7180;BME280;3631;42.152;24.756;2022-08-19T09:23:45;98983.38;;;43.63;22.28
7180;BME280;3631;42.152;24.756;2022-08-19T09:26:14;98985.53;;;43.71;22.23
7180;BME280;3631;42.152;24.756;2022-08-19T09:28:45;98979.75;;;44.48;21.74
7180;BME280;3631;42.152;24.756;2022-08-19T09:31:13;98980.75;;;44.83;21.75
7180;BME280;3631;42.152;24.756;2022-08-19T09:33:40;98972.59;;;45.27;21.26
7180;BME280;3631;42.152;24.756;2022-08-19T09:36:11;98976.97;;;45.28;21.03
7180;BME280;3631;42.152;24.756;2022-08-19T09:38:40;98979.66;;;45.38;20.56
7180;BME280;3631;42.152;24.756;2022-08-19T09:41:09;98983.63;;;45.61;20.35
7180;BME280;3631;42.152;24.756;2022-08-19T09:43:36;98981.50;;;45.92;20.48
7180;BME280;3631;42.152;24.756;2022-08-19T09:46:06;98979.41;;;46.66;19.41
7180;BME280;3631;42.152;24.756;2022-08-19T09:48:35;98980.88;;;46.53;19.50
7180;BME280;3631;42.152;24.756;2022-08-19T09:51:03;98974.00;;;46.55;19.42
7180;BME280;3631;42.152;24.756;2022-08-19T09:53:30;98976.63;;;47.51;18.71
7180;BME280;3631;42.152;24.756;2022-08-19T09:55:57;98974.00;;;47.59;18.40
7180;BME280;3631;42.152;24.756;2022-08-19T09:58:24;98962.00;;;47.88;18.23
7180;BME280;3631;42.152;24.756;2022-08-19T10:00:53;98959.38;;;47.26;18.73
7180;BME280;3631;42.152;24.756;2022-08-19T10:03:22;98960.56;;;47.58;18.70
7180;BME280;3631;42.152;24.756;2022-08-19T10:05:49;98959.88;;;47.66;18.42
7180;BME280;3631;42.152;24.756;2022-08-19T10:08:17;98954.31;;;47.15;18.85
7180;BME280;3631;42.152;24.756;2022-08-19T10:10:47;98957.34;;;46.94;19.17
7180;BME280;3631;42.152;24.756;2022-08-19T10:13:16;98951.47;;;48.09;18.42
7180;BME280;3631;42.152;24.756;2022-08-19T10:15:43;98950.41;;;47.40;18.39
7180;BME280;3631;42.152;24.756;2022-08-19T10:18:10;98936.97;;;46.77;19.38
7180;BME280;3631;42.152;24.756;2022-08-19T10:20:39;98941.91;;;46.51;19.00
7180;BME280;3631;42.152;24.756;2022-08-19T10:23:07;98929.34;;;46.21;19.46
7180;BME280;3631;42.152;24.756;2022-08-19T10:25:34;98923.44;;;45.80;19.97
7180;BME280;3631;42.152;24.756;2022-08-19T10:28:01;98922.94;;;43.69;21.24
7180;BME280;3631;42.152;24.756;2022-08-19T10:30:28;98915.06;;;42.18;22.57
7180;BME280;3631;42.152;24.756;2022-08-19T10:32:55;98912.63;;;41.52;23.31
7180;BME280;3631;42.152;24.756;2022-08-19T10:35:22;98899.81;;;40.72;24.13
7180;BME280;3631;42.152;24.756;2022-08-19T10:37:51;98901.28;;;39.86;24.66
7180;BME280;3631;42.152;24.756;2022-08-19T10:40:18;98899.22;;;39.76;25.59
7180;BME280;3631;42.152;24.756;2022-08-19T10:42:46;98892.47;;;39.79;25.20
7180;BME280;3631;42.152;24.756;2022-08-19T10:45:13;98897.00;;;39.90;25.64
7180;BME280;3631;42.152;24.756;2022-08-19T10:47:39;98894.38;;;39.45;25.57
7180;BME280;3631;42.152;24.756;2022-08-19T10:50:07;98898.31;;;39.09;25.74
7180;BME280;3631;42.152;24.756;2022-08-19T10:52:53;98890.81;;;38.99;26.31
7180;BME280;3631;42.152;24.756;2022-08-19T10:55:22;98899.28;;;38.51;26.43
7180;BME280;3631;42.152;24.756;2022-08-19T10:58:11;98895.88;;;38.44;25.23
7180;BME280;3631;42.152;24.756;2022-08-19T11:00:38;98888.97;;;38.36;25.64
7180;BME280;3631;42.152;24.756;2022-08-19T11:03:06;98878.13;;;38.36;25.97
7180;BME280;3631;42.152;24.756;2022-08-19T11:05:33;98878.47;;;38.05;26.20
7180;BME280;3631;42.152;24.756;2022-08-19T11:08:02;98888.38;;;37.76;26.55
7180;BME280;3631;42.152;24.756;2022-08-19T11:10:29;98887.84;;;37.56;26.39
7180;BME280;3631;42.152;24.756;2022-08-19T11:12:56;98878.31;;;37.12;27.28
7180;BME280;3631;42.152;24.756;2022-08-19T11:15:23;98881.59;;;36.84;27.33
7180;BME280;3631;42.152;24.756;2022-08-19T11:17:51;98872.53;;;36.78;27.09
7180;BME280;3631;42.152;24.756;2022-08-19T11:20:19;98873.53;;;36.95;27.02
7180;BME280;3631;42.152;24.756;2022-08-19T11:22:46;98869.38;;;37.11;26.67
7180;BME280;3631;42.152;24.756;2022-08-19T11:25:15;98867.06;;;37.26;25.95
7180;BME280;3631;42.152;24.756;2022-08-19T11:27:42;98865.41;;;37.25;25.83
7180;BME280;3631;42.152;24.756;2022-08-19T11:30:12;98865.09;;;37.33;25.56
7180;BME280;3631;42.152;24.756;2022-08-19T11:32:39;98867.72;;;37.52;25.39
7180;BME280;3631;42.152;24.756;2022-08-19T11:35:07;98859.41;;;37.65;25.37
7180;BME280;3631;42.152;24.756;2022-08-19T11:37:35;98856.22;;;37.79;25.89
7180;BME280;3631;42.152;24.756;2022-08-19T11:40:05;98870.38;;;37.70;25.78
7180;BME280;3631;42.152;24.756;2022-08-19T11:42:34;98860.50;;;37.34;26.37
7180;BME280;3631;42.152;24.756;2022-08-19T11:45:18;98852.72;;;37.26;26.73
7180;BME280;3631;42.152;24.756;2022-08-19T11:47:45;98850.97;;;37.31;26.35
7180;BME280;3631;42.152;24.756;2022-08-19T11:50:12;98848.13;;;37.26;26.62
7180;BME280;3631;42.152;24.756;2022-08-19T11:52:39;98844.59;;;37.26;26.62
7180;BME280;3631;42.152;24.756;2022-08-19T11:55:08;98831.00;;;37.14;26.53
7180;BME280;3631;42.152;24.756;2022-08-19T11:57:36;98839.09;;;37.32;27.12
7180;BME280;3631;42.152;24.756;2022-08-19T12:00:04;98831.66;;;37.39;27.03
7180;BME280;3631;42.152;24.756;2022-08-19T12:02:32;98835.66;;;37.25;27.18
7180;BME280;3631;42.152;24.756;2022-08-19T12:04:59;98833.00;;;37.07;27.12
7180;BME280;3631;42.152;24.756;2022-08-19T12:07:27;98833.13;;;37.12;27.37
7180;BME280;3631;42.152;24.756;2022-08-19T12:09:54;98823.06;;;37.19;27.21
7180;BME280;3631;42.152;24.756;2022-08-19T12:12:21;98822.31;;;37.12;27.84
7180;BME280;3631;42.152;24.756;2022-08-19T12:14:50;98819.88;;;36.92;27.35
7180;BME280;3631;42.152;24.756;2022-08-19T12:17:22;98820.44;;;36.83;27.59
7180;BME280;3631;42.152;24.756;2022-08-19T12:19:49;98813.28;;;36.77;27.70
7180;BME280;3631;42.152;24.756;2022-08-19T12:22:16;98804.94;;;36.60;27.94
7180;BME280;3631;42.152;24.756;2022-08-19T12:24:43;98809.38;;;36.72;27.82
7180;BME280;3631;42.152;24.756;2022-08-19T12:27:10;98809.50;;;36.78;28.10
7180;BME280;3631;42.152;24.756;2022-08-19T12:29:37;98805.59;;;36.73;28.16
7180;BME280;3631;42.152;24.756;2022-08-19T12:32:06;98795.84;;;36.72;28.20
7180;BME280;3631;42.152;24.756;2022-08-19T12:34:34;98802.31;;;36.71;28.05
7180;BME280;3631;42.152;24.756;2022-08-19T12:37:04;98792.84;;;36.62;27.80
7180;BME280;3631;42.152;24.756;2022-08-19T12:39:34;98790.28;;;36.67;28.34
7180;BME280;3631;42.152;24.756;2022-08-19T12:42:01;98789.38;;;36.73;27.78
7180;BME280;3631;42.152;24.756;2022-08-19T12:44:28;98801.88;;;36.56;27.90
7180;BME280;3631;42.152;24.756;2022-08-19T12:46:56;98794.38;;;36.40;27.89
7180;BME280;3631;42.152;24.756;2022-08-19T12:49:24;98797.31;;;36.38;27.89
7180;BME280;3631;42.152;24.756;2022-08-19T12:51:51;98791.59;;;36.47;27.75
7180;BME280;3631;42.152;24.756;2022-08-19T12:54:18;98796.94;;;36.35;28.00
7180;BME280;3631;42.152;24.756;2022-08-19T12:56:45;98790.19;;;36.44;28.12
7180;BME280;3631;42.152;24.756;2022-08-19T12:59:13;98785.06;;;36.54;28.14
7180;BME280;3631;42.152;24.756;2022-08-19T13:01:43;98785.31;;;36.64;28.26
7180;BME280;3631;42.152;24.756;2022-08-19T13:04:10;98777.81;;;36.66;27.84
7180;BME280;3631;42.152;24.756;2022-08-19T13:06:38;98773.16;;;36.73;27.16
7180;BME280;3631;42.152;24.756;2022-08-19T13:09:05;98779.09;;;36.64;27.24
7180;BME280;3631;42.152;24.756;2022-08-19T13:11:32;98776.16;;;36.65;27.51
7180;BME280;3631;42.152;24.756;2022-08-19T13:14:01;98774.97;;;36.61;27.76
7180;BME280;3631;42.152;24.756;2022-08-19T13:16:29;98774.88;;;36.68;27.97
7180;BME280;3631;42.152;24.756;2022-08-19T13:18:57;98765.34;;;36.65;28.00